Time;durP1;ratioP1;P1;durP2;ratioP2;P2;SDS_P1;SDS_P2;PMS_P1;PMS_P2;Temp;Humidity;BMP_temperature;BMP_pressure;BME280_temperature;BME280_humidity;BME280_pressure;Samples;Min_cycle;Max_cycle;Signal;HPM_P1;HPM_P2
2021/11/13 15:48:29;;;;;;;16.20;9.32;;;14.80;76.50;;;;;;5083255;27;20878;-68
2021/11/13 15:51:04;;;;;;;14.77;10.25;;;14.60;77.60;;;;;;5071046;28;20086;-68
2021/11/13 15:53:41;;;;;;;14.70;9.77;;;14.60;77.60;;;;;;5061903;28;20393;-68
2021/11/13 15:56:21;;;;;;;10.80;5.45;;;14.50;77.60;;;;;;5051402;28;20040;-68
2021/11/13 15:58:50;;;;;;;15.17;13.03;;;14.50;77.60;;;;;;5051086;28;20399;-68
2021/11/13 16:01:19;;;;;;;10.75;5.90;;;14.50;77.40;;;;;;5061334;28;20654;-68
2021/11/13 16:03:46;;;;;;;17.63;8.00;;;14.50;77.60;;;;;;5058237;28;20475;-68
2021/11/13 16:06:12;;;;;;;9.80;2.80;;;14.50;77.60;;;;;;5051796;28;20033;-68
2021/11/13 16:08:38;;;;;;;9.00;5.18;;;14.40;77.90;;;;;;5057241;28;20036;-67
2021/11/13 16:11:07;;;;;;;11.60;6.25;;;14.40;78.10;;;;;;5054598;28;20032;-68
2021/11/13 16:13:34;;;;;;;8.82;2.90;;;14.40;78.40;;;;;;5050503;28;20044;-68
2021/11/13 16:16:00;;;;;;;9.05;3.83;;;14.30;78.40;;;;;;5054392;28;20075;-68
2021/11/13 16:18:27;;;;;;;9.18;3.13;;;14.30;78.60;;;;;;5054771;28;20021;-67
2021/11/13 16:20:57;;;;;;;10.25;5.13;;;14.30;78.70;;;;;;5051175;28;20040;-68
2021/11/13 16:23:23;;;;;;;8.32;4.63;;;14.30;78.80;;;;;;5057604;28;20497;-67
2021/11/13 16:25:51;;;;;;;14.75;5.15;;;14.20;78.90;;;;;;5050714;28;20523;-67
2021/11/13 16:28:19;;;;;;;8.68;4.13;;;14.20;79.00;;;;;;5053550;28;20087;-68
2021/11/13 16:30:47;;;;;;;12.52;6.00;;;14.20;79.20;;;;;;5050884;28;20504;-68
2021/11/13 16:33:14;;;;;;;8.60;4.68;;;14.20;79.40;;;;;;5055739;28;20078;-67
2021/11/13 16:35:41;;;;;;;10.73;6.05;;;14.10;79.40;;;;;;5058496;28;20483;-67
2021/11/13 16:38:14;;;;;;;16.98;8.02;;;14.10;79.50;;;;;;5055115;28;20048;-67
2021/11/13 16:40:52;;;;;;;13.40;7.75;;;14.10;79.70;;;;;;5061050;28;20025;-67
2021/11/13 16:43:20;;;;;;;18.73;7.88;;;14.10;79.80;;;;;;5064480;28;20067;-67
2021/11/13 16:45:49;;;;;;;14.40;3.95;;;14.10;79.90;;;;;;5055544;28;20056;-67
2021/11/13 16:48:18;;;;;;;12.30;7.20;;;14.00;79.90;;;;;;5054714;28;20102;-67
2021/11/13 16:50:45;;;;;;;11.77;6.30;;;14.00;80.10;;;;;;5057970;28;20049;-67
2021/11/13 16:53:17;;;;;;;14.32;5.55;;;14.00;80.20;;;;;;5054823;28;20035;-67
2021/11/13 16:55:46;;;;;;;15.90;10.27;;;13.90;80.30;;;;;;5061808;28;20033;-67
2021/11/13 16:58:12;;;;;;;15.00;9.38;;;13.90;80.30;;;;;;5045550;28;20048;-67
2021/11/13 17:00:39;;;;;;;19.23;11.82;;;13.90;80.40;;;;;;5045322;28;20388;-67
2021/11/13 17:03:07;;;;;;;20.95;11.10;;;13.90;80.60;;;;;;5059566;28;20553;-67
2021/11/13 17:05:33;;;;;;;19.35;13.23;;;13.80;80.60;;;;;;5047838;28;20427;-67
2021/11/13 17:07:58;;;;;;;16.27;8.55;;;13.80;80.70;;;;;;5053013;28;20036;-67
2021/11/13 17:10:24;;;;;;;23.33;13.52;;;13.80;80.70;;;;;;5052059;28;20060;-67
2021/11/13 17:12:52;;;;;;;15.88;11.48;;;13.80;80.80;;;;;;5046222;28;20120;-67
2021/11/13 17:15:18;;;;;;;15.77;9.88;;;13.80;80.90;;;;;;5041003;28;20017;-67
2021/11/13 17:17:48;;;;;;;13.18;5.50;;;13.80;80.90;;;;;;5027836;28;20025;-67
2021/11/13 17:20:14;;;;;;;13.68;5.15;;;13.80;81.00;;;;;;5036502;28;20021;-67
2021/11/13 17:22:42;;;;;;;13.70;5.25;;;13.80;81.00;;;;;;5050938;28;20092;-67
2021/11/13 17:25:11;;;;;;;13.63;5.40;;;13.70;81.00;;;;;;5049724;28;20056;-67
2021/11/13 17:27:38;;;;;;;12.55;5.70;;;13.70;81.00;;;;;;5043832;28;20040;-67
2021/11/13 17:30:08;;;;;;;11.30;4.97;;;13.70;81.10;;;;;;5045538;28;20028;-67
2021/11/13 17:32:36;;;;;;;9.68;5.38;;;13.70;81.10;;;;;;5048509;28;20021;-67
2021/11/13 17:35:05;;;;;;;9.93;5.03;;;13.70;81.20;;;;;;5053708;28;20068;-67
2021/11/13 17:37:32;;;;;;;9.05;4.60;;;13.70;81.30;;;;;;5036363;28;20085;-67
2021/11/13 17:39:57;;;;;;;9.25;4.63;;;13.70;81.30;;;;;;5052692;28;20108;-67
2021/11/13 17:42:24;;;;;;;9.90;4.53;;;13.70;81.40;;;;;;5055029;28;20116;-67
2021/11/13 17:44:50;;;;;;;11.02;5.18;;;13.70;81.40;;;;;;5050278;28;20026;-67
2021/11/13 17:47:16;;;;;;;11.80;4.88;;;13.60;81.40;;;;;;5034940;28;20053;-67
2021/11/13 17:49:42;;;;;;;11.90;5.30;;;13.60;81.40;;;;;;5037515;28;20021;-67
2021/11/13 17:52:08;;;;;;;11.38;5.03;;;13.60;81.50;;;;;;5035441;28;20416;-67
2021/11/13 17:54:34;;;;;;;13.07;5.43;;;13.60;81.50;;;;;;5038826;28;20030;-67
2021/11/13 17:57:00;;;;;;;11.05;5.35;;;13.60;81.60;;;;;;5053839;28;20036;-67
2021/11/13 17:59:26;;;;;;;15.77;8.52;;;13.60;81.60;;;;;;5053446;28;20055;-67
2021/11/13 18:01:53;;;;;;;16.65;7.85;;;13.60;81.60;;;;;;5051612;28;20399;-67
2021/11/13 18:04:20;;;;;;;12.45;6.30;;;13.60;81.80;;;;;;5053428;28;20025;-67
2021/11/13 18:06:46;;;;;;;13.52;6.78;;;13.50;81.70;;;;;;5046788;28;20041;-67
2021/11/13 18:09:12;;;;;;;13.63;7.00;;;13.50;81.70;;;;;;5048903;28;20017;-67
2021/11/13 18:11:39;;;;;;;16.40;9.48;;;13.50;81.70;;;;;;5057464;28;20504;-67
2021/11/13 18:14:07;;;;;;;15.50;7.47;;;13.50;81.80;;;;;;5056718;28;20173;-67
2021/11/13 18:16:33;;;;;;;12.85;6.32;;;13.50;81.90;;;;;;5053140;28;20028;-67
2021/11/13 18:19:00;;;;;;;14.98;6.70;;;13.50;82.00;;;;;;5039815;28;20021;-67
2021/11/13 18:21:26;;;;;;;11.15;6.20;;;13.50;82.10;;;;;;5045566;28;20144;-67
2021/11/13 18:23:52;;;;;;;15.07;7.30;;;13.50;82.20;;;;;;5053744;28;20017;-66
2021/11/13 18:26:18;;;;;;;14.02;6.43;;;13.40;82.10;;;;;;5051238;28;20044;-67
2021/11/13 18:28:45;;;;;;;13.15;6.50;;;13.40;82.10;;;;;;5054190;28;20028;-67
2021/11/13 18:31:11;;;;;;;16.85;7.13;;;13.40;82.10;;;;;;5036516;28;20060;-67
2021/11/13 18:33:37;;;;;;;15.73;7.45;;;13.40;82.10;;;;;;5047021;28;20021;-67
2021/11/13 18:36:04;;;;;;;17.20;8.07;;;13.40;82.10;;;;;;5047368;28;20025;-67
2021/11/13 18:38:30;;;;;;;18.67;7.13;;;13.40;82.10;;;;;;5035266;28;20017;-68
2021/11/13 18:40:57;;;;;;;14.02;6.68;;;13.40;82.30;;;;;;5050607;28;20053;-67
2021/11/13 18:43:26;;;;;;;13.43;6.40;;;13.30;82.30;;;;;;5036032;28;20073;-68
2021/11/13 18:45:52;;;;;;;17.60;7.47;;;13.30;82.30;;;;;;5053400;28;20059;-68
2021/11/13 18:48:21;;;;;;;14.40;7.60;;;13.30;82.40;;;;;;5041366;28;20137;-67
2021/11/13 18:50:50;;;;;;;16.95;7.65;;;13.30;82.40;;;;;;5045409;28;20036;-67
2021/11/13 18:53:17;;;;;;;13.63;7.40;;;13.30;82.50;;;;;;5032777;28;20036;-67
2021/11/13 18:55:43;;;;;;;20.08;9.65;;;13.30;82.60;;;;;;5064474;28;20085;-68
2021/11/13 18:58:09;;;;;;;19.65;9.90;;;13.30;82.60;;;;;;5057179;28;20029;-67
2021/11/13 19:00:36;;;;;;;21.05;9.80;;;13.30;82.70;;;;;;5043025;28;20313;-67
2021/11/13 19:03:02;;;;;;;16.15;8.15;;;13.30;82.80;;;;;;5043353;28;20029;-67
2021/11/13 19:05:28;;;;;;;22.92;9.18;;;13.30;82.80;;;;;;5046432;28;20484;-67
2021/11/13 19:07:54;;;;;;;16.00;9.35;;;13.30;82.90;;;;;;5044204;28;20045;-65
2021/11/13 19:10:21;;;;;;;19.05;10.05;;;13.30;83.00;;;;;;5043735;28;20213;-67
2021/11/13 19:12:48;;;;;;;21.90;9.20;;;13.30;83.00;;;;;;5052010;28;20427;-67
2021/11/13 19:15:17;;;;;;;20.60;9.00;;;13.20;83.00;;;;;;5049123;28;20547;-67
2021/11/13 19:17:44;;;;;;;21.40;8.25;;;13.20;83.00;;;;;;5055817;28;20033;-67
2021/11/13 19:20:10;;;;;;;20.98;9.27;;;13.30;83.10;;;;;;5045942;28;20059;-67
2021/11/13 19:22:36;;;;;;;21.20;8.95;;;13.20;83.10;;;;;;5050932;28;20036;-66
2021/11/13 19:25:08;;;;;;;22.23;9.00;;;13.20;83.00;;;;;;5035796;28;20025;-67
2021/11/13 19:27:34;;;;;;;18.35;8.73;;;13.20;83.00;;;;;;5052114;28;20040;-67
2021/11/13 19:30:00;;;;;;;20.13;8.85;;;13.20;83.00;;;;;;5047192;28;20143;-67
2021/11/13 19:32:28;;;;;;;20.50;9.93;;;13.20;83.10;;;;;;5056504;28;20082;-67
2021/11/13 19:34:54;;;;;;;17.27;9.75;;;13.20;83.10;;;;;;5049731;28;20513;-67
2021/11/13 19:37:21;;;;;;;18.80;9.88;;;13.20;83.20;;;;;;5019729;28;20040;-67
2021/11/13 19:39:47;;;;;;;22.42;10.80;;;13.20;83.20;;;;;;5045833;28;20024;-67
2021/11/13 19:42:13;;;;;;;22.35;11.05;;;13.20;83.20;;;;;;5055098;28;20029;-67
2021/11/13 19:44:39;;;;;;;23.55;11.52;;;13.20;83.20;;;;;;5049631;28;20067;-66
2021/11/13 19:47:05;;;;;;;22.52;10.43;;;13.20;83.20;;;;;;5052565;28;20045;-66
2021/11/13 19:49:31;;;;;;;24.83;10.90;;;13.20;84.20;;;;;;5052960;28;20110;-67
2021/11/13 19:51:57;;;;;;;22.90;10.55;;;13.10;83.20;;;;;;5045857;28;20637;-67
2021/11/13 19:54:25;;;;;;;23.20;11.80;;;13.10;83.20;;;;;;5039585;28;20029;-67
2021/11/13 19:56:51;;;;;;;23.80;13.10;;;13.10;83.30;;;;;;5024747;28;20036;-67
2021/11/13 19:59:18;;;;;;;25.45;14.05;;;13.10;83.40;;;;;;5054942;28;20022;-67
2021/11/13 20:01:45;;;;;;;23.20;14.10;;;13.10;83.40;;;;;;5039319;28;20032;-67
2021/11/13 20:04:11;;;;;;;26.95;13.30;;;13.10;83.50;;;;;;5067314;28;20025;-67
2021/11/13 20:06:37;;;;;;;27.00;14.57;;;13.10;83.40;;;;;;5040810;28;20037;-67
2021/11/13 20:09:04;;;;;;;24.30;13.23;;;13.10;83.50;;;;;;5041994;28;20032;-67
2021/11/13 20:11:30;;;;;;;23.13;14.30;;;13.10;83.50;;;;;;5050716;28;20033;-67
2021/11/13 20:13:59;;;;;;;20.67;11.35;;;13.10;83.50;;;;;;5030699;28;20040;-67
2021/11/13 20:16:26;;;;;;;20.05;9.85;;;13.10;83.60;;;;;;5042614;28;20032;-67
2021/11/13 20:18:52;;;;;;;17.98;10.25;;;13.10;83.60;;;;;;5043408;28;20033;-66
2021/11/13 20:21:18;;;;;;;17.60;10.82;;;13.00;83.60;;;;;;5043979;28;20404;-66
2021/11/13 20:23:44;;;;;;;21.63;9.88;;;13.00;83.70;;;;;;5039307;28;20028;-67
2021/11/13 20:26:12;;;;;;;20.10;10.00;;;13.00;83.70;;;;;;5054414;28;20033;-67
2021/11/13 20:28:40;;;;;;;19.23;9.05;;;13.00;83.80;;;;;;5049819;28;20082;-67
2021/11/13 20:31:08;;;;;;;15.30;7.60;;;13.00;84.70;;;;;;5046026;28;20076;-63
2021/11/13 20:33:35;;;;;;;17.58;7.70;;;13.00;83.80;;;;;;5055126;28;20071;-64
2021/11/13 20:36:01;;;;;;;17.27;7.93;;;13.00;83.80;;;;;;5046264;28;20088;-65
2021/11/13 20:38:28;;;;;;;14.70;6.80;;;13.00;83.80;;;;;;5048723;28;20021;-65
2021/11/13 20:40:56;;;;;;;13.10;6.55;;;13.00;83.90;;;;;;5050768;28;20566;-65
2021/11/13 20:43:24;;;;;;;12.25;6.28;;;13.00;83.90;;;;;;5047566;28;20369;-65
2021/11/13 20:45:52;;;;;;;13.80;6.93;;;13.00;83.90;;;;;;5040702;28;20096;-65
2021/11/13 20:48:18;;;;;;;11.90;7.15;;;13.00;83.90;;;;;;5031282;28;20057;-65
2021/11/13 20:50:44;;;;;;;14.05;6.85;;;13.00;83.90;;;;;;5028754;28;20396;-65
2021/11/13 20:53:13;;;;;;;14.05;6.20;;;13.00;83.90;;;;;;5029089;28;20413;-65
2021/11/13 20:55:41;;;;;;;13.30;6.28;;;13.00;84.00;;;;;;5014974;28;20493;-65
2021/11/13 20:58:08;;;;;;;14.85;5.63;;;13.00;84.00;;;;;;5027745;28;20087;-65
2021/11/13 21:00:38;;;;;;;12.55;5.70;;;13.00;84.00;;;;;;5021485;28;20105;-65
2021/11/13 21:03:06;;;;;;;14.63;7.07;;;13.00;84.00;;;;;;5022126;28;20037;-65
2021/11/13 21:05:32;;;;;;;12.15;6.80;;;13.00;84.10;;;;;;5027126;28;20108;-65
2021/11/13 21:07:59;;;;;;;12.68;7.25;;;13.00;84.10;;;;;;5037436;28;20069;-65
2021/11/13 21:10:25;;;;;;;11.95;6.78;;;13.00;84.10;;;;;;5043999;28;20027;-64
2021/11/13 21:12:52;;;;;;;14.40;6.07;;;13.00;84.10;;;;;;5027998;28;20120;-65
2021/11/13 21:15:19;;;;;;;12.38;5.93;;;12.90;84.10;;;;;;5041694;28;20026;-65
2021/11/13 21:17:45;;;;;;;9.35;5.60;;;12.90;84.10;;;;;;5038520;28;20018;-65
2021/11/13 21:20:14;;;;;;;12.57;5.82;;;12.90;84.10;;;;;;5029025;28;20523;-65
2021/11/13 21:22:40;;;;;;;12.77;6.65;;;12.90;84.10;;;;;;5047890;28;20029;-65
2021/11/13 21:25:08;;;;;;;16.58;6.72;;;12.90;84.20;;;;;;5038129;28;20057;-65
2021/11/13 21:27:36;;;;;;;12.88;6.68;;;12.90;84.20;;;;;;5020835;28;20034;-65
2021/11/13 21:30:05;;;;;;;14.23;6.82;;;12.90;84.20;;;;;;5016994;28;20436;-65
2021/11/13 21:32:31;;;;;;;10.13;5.82;;;12.90;84.30;;;;;;5032607;28;20030;-65
2021/11/13 21:34:57;;;;;;;16.10;5.90;;;12.90;84.30;;;;;;5032170;28;20435;-65
2021/11/13 21:37:23;;;;;;;13.70;6.38;;;12.90;84.40;;;;;;5034993;28;20497;-65
2021/11/13 21:39:49;;;;;;;12.55;6.43;;;12.80;84.30;;;;;;5030165;28;20100;-65
2021/11/13 21:42:15;;;;;;;13.18;5.88;;;12.80;84.40;;;;;;5037489;28;20029;-64
2021/11/13 21:44:41;;;;;;;11.20;5.75;;;12.80;84.40;;;;;;5041461;28;20033;-65
2021/11/13 21:47:08;;;;;;;12.70;5.85;;;12.80;84.50;;;;;;5047008;28;20415;-65
2021/11/13 21:49:34;;;;;;;12.23;6.70;;;12.80;84.50;;;;;;5058584;28;20029;-65
2021/11/13 21:52:03;;;;;;;13.13;6.47;;;12.80;84.50;;;;;;5038182;28;20091;-65
2021/11/13 21:54:29;;;;;;;13.80;6.25;;;12.80;84.60;;;;;;5049278;28;20060;-65
2021/11/13 21:56:56;;;;;;;15.57;6.93;;;12.80;84.60;;;;;;5069870;28;20068;-65
2021/11/13 21:59:22;;;;;;;13.60;8.25;;;12.80;84.60;;;;;;5037816;28;20012;-65
2021/11/13 22:01:48;;;;;;;13.02;7.22;;;12.80;84.70;;;;;;5051826;28;20028;-64
2021/11/13 22:04:16;;;;;;;16.58;7.65;;;12.90;84.70;;;;;;5055460;28;20073;-65
2021/11/13 22:06:43;;;;;;;14.90;8.00;;;12.80;84.70;;;;;;5054583;28;20052;-65
2021/11/13 22:09:09;;;;;;;15.38;7.75;;;12.80;84.80;;;;;;5050808;28;20551;-65
2021/11/13 22:11:37;;;;;;;19.65;8.30;;;12.80;84.80;;;;;;5046315;28;20029;-65
2021/11/13 22:14:03;;;;;;;20.08;9.02;;;12.70;85.70;;;;;;5047605;28;20079;-65
2021/11/13 22:16:29;;;;;;;14.50;8.52;;;12.70;84.90;;;;;;5036701;28;20037;-65
2021/11/13 22:18:55;;;;;;;18.00;8.93;;;12.70;84.90;;;;;;5049210;28;20017;-65
2021/11/13 22:21:21;;;;;;;15.00;9.57;;;12.70;84.90;;;;;;5050375;28;20112;-65
2021/11/13 22:23:47;;;;;;;20.88;9.57;;;12.70;84.90;;;;;;5053249;28;20025;-65
2021/11/13 22:26:13;;;;;;;15.98;9.60;;;12.70;85.80;;;;;;5050024;28;20036;-65
2021/11/13 22:28:39;;;;;;;20.77;11.20;;;12.70;84.90;;;;;;5034340;28;20377;-67
2021/11/13 22:31:06;;;;;;;21.58;11.20;;;12.70;85.00;;;;;;5054601;28;20379;-67
2021/11/13 22:33:33;;;;;;;16.48;9.90;;;12.70;85.00;;;;;;5051678;28;20052;-67
2021/11/13 22:36:00;;;;;;;19.20;10.38;;;12.70;85.00;;;;;;5044202;28;20116;-67
2021/11/13 22:38:27;;;;;;;17.55;10.35;;;12.60;85.00;;;;;;5035728;28;20496;-67
2021/11/13 22:40:54;;;;;;;15.55;9.77;;;12.60;85.10;;;;;;5048121;28;20025;-67
2021/11/13 22:43:21;;;;;;;15.95;9.52;;;12.60;85.10;;;;;;5054342;28;20032;-67
2021/11/13 22:45:51;;;;;;;17.23;8.77;;;12.60;85.10;;;;;;5051092;28;20024;-67
2021/11/13 22:48:19;;;;;;;18.53;9.03;;;12.60;85.10;;;;;;5048872;28;20041;-67
2021/11/13 22:50:48;;;;;;;17.77;8.60;;;12.60;85.10;;;;;;5041736;28;20028;-67
2021/11/13 22:53:15;;;;;;;17.15;8.55;;;12.60;85.10;;;;;;5040181;28;20055;-67
2021/11/13 22:55:41;;;;;;;17.90;9.23;;;12.60;85.10;;;;;;5054817;28;20032;-67
2021/11/13 22:58:07;;;;;;;18.08;8.70;;;12.60;85.00;;;;;;5052309;28;20075;-67
2021/11/13 23:00:41;;;;;;;16.15;8.82;;;12.60;85.10;;;;;;5052555;28;20040;-67
2021/11/13 23:03:31;;;;;;;12.80;8.13;;;12.60;85.10;;;;;;5043714;28;20029;-67
2021/11/13 23:06:08;;;;;;;11.80;7.80;;;12.50;85.00;;;;;;5047987;28;20455;-67
2021/11/13 23:08:35;;;;;;;15.30;7.93;;;12.50;85.00;;;;;;5051566;28;20032;-67
2021/11/13 23:11:04;;;;;;;12.98;7.55;;;12.50;86.00;;;;;;5053179;28;20862;-67
2021/11/13 23:13:31;;;;;;;16.60;7.65;;;12.50;85.10;;;;;;5047611;28;20411;-67
2021/11/13 23:15:57;;;;;;;17.52;8.32;;;12.50;85.20;;;;;;5035199;28;20400;-67
2021/11/13 23:18:24;;;;;;;13.52;7.60;;;12.50;85.30;;;;;;5034957;28;20033;-67
2021/11/13 23:20:50;;;;;;;14.30;7.43;;;12.50;85.30;;;;;;5045868;28;20040;-67
2021/11/13 23:23:18;;;;;;;12.30;7.25;;;12.50;85.20;;;;;;5046746;28;20033;-67
2021/11/13 23:25:46;;;;;;;17.75;7.20;;;12.50;85.20;;;;;;5050240;28;20067;-67
2021/11/13 23:28:12;;;;;;;14.98;8.10;;;12.50;85.20;;;;;;5065863;28;20071;-67
2021/11/13 23:30:38;;;;;;;18.05;7.97;;;12.50;85.20;;;;;;5047967;28;20034;-67
2021/11/13 23:33:06;;;;;;;12.63;7.70;;;12.50;85.20;;;;;;5045616;28;20080;-67
2021/11/13 23:35:33;;;;;;;15.20;7.30;;;12.50;85.20;;;;;;5047560;28;20025;-67
2021/11/13 23:38:00;;;;;;;15.95;7.78;;;12.50;85.20;;;;;;5049122;28;20029;-65
2021/11/13 23:40:27;;;;;;;13.18;7.63;;;12.50;85.30;;;;;;5057534;28;20163;-64
2021/11/13 23:42:53;;;;;;;14.82;8.25;;;12.50;85.30;;;;;;5046378;28;20052;-65
2021/11/13 23:45:26;;;;;;;13.68;8.63;;;12.50;85.30;;;;;;5053076;28;20575;-64
2021/11/13 23:47:52;;;;;;;13.63;8.07;;;12.40;85.30;;;;;;5053360;28;20052;-64
2021/11/13 23:50:19;;;;;;;14.45;8.30;;;12.40;85.30;;;;;;5044082;28;20464;-65
2021/11/13 23:52:44;;;;;;;16.35;8.23;;;12.50;85.30;;;;;;5065158;28;20020;-64
2021/11/13 23:55:12;;;;;;;18.80;8.68;;;12.40;85.30;;;;;;5046991;28;20017;-64
2021/11/13 23:57:39;;;;;;;13.98;8.57;;;12.40;86.20;;;;;;5041711;28;20041;-65
